Kettle River, MN (55757)

5:23 PM CST on February 14, 2016 (GMT -0600)
Moose Lake-Carlton County | | Change Station
CLOSE
Current Station
Airport
Location: Moose Lake,
Elevation: 1076 ft
Nearby Weather Stations

Elev 1076 ft 46.42 °N, 92.80 °W | Updated 8 minutes ago

Snow
Snow
18 °F
Feels Like 9 °F
N
6
Wind Variable Wind from SSE

Today
High -- | Low -- °F
--% Chance of Precip.
Yesterday
High -- | Low -- °F
Precip. -- in
Pressure 29.88 in
Visibility 1.0 miles
Clouds Overcast 1000 ft
Windchill 9 °F
Dew Point 12 °F
Humidity 79%
Rainfall 0.00 in
Snow Depth Not available.
7:17 AM 5:34 PM
Waxing Crescent, 46% visible
METAR KMZH 142315Z AUTO 16005KT 1SM -SN OVC010 M08/M11 A2988 RMK AO2
Pressure 29.88 in
Visibility 1.0 miles
Clouds Overcast 1000 ft
Windchill 9 °F
Dew Point 12 °F
Humidity 79%
Rainfall 0.00 in
Snow Depth Not available.
7:17 AM 5:34 PM
Waxing Crescent, 46% visible
METAR KMZH 142315Z AUTO 16005KT 1SM -SN OVC010 M08/M11 A2988 RMK AO2

10-Day Weather Forecast

Almanac

Astronomy

Feb. 14, 2016 Rise Set
Actual Time
Civil Twilight
Nautical Twilight
Astronomical Twilight
Moon
Length of Visible Light
Length of Day
Tomorrow will be .
, % of the Moon is Illuminated

Today's Extremes

State Highs State Lows

Community

WunderPhotos

Upload Photos

1,892,915 photos uploaded!

WunderBlog® & News

Nearby

Air Quality

  Air Quality AQ Index Pollutant
Not available.

Snow Depth

Station Depth Elevation

Earthquake Activity

City Distance Mag. Time & Date
Minimum magnitude displayed is 2.5.

Coastal Water Temperatures

Place Temperature

Stations

Nearby Weather Stations

Station Location Temp. Windchill Dew Point Humidity Wind Precip. Elev Updated Type
                   

Watches & Warnings

There are currently no watches in effect.